createdAt,value
2022-12-15T00:01:17.293Z,75.69
2022-12-15T00:03:43.813Z,75.37
2022-12-15T00:06:10.317Z,75.66
2022-12-15T00:08:36.667Z,75.29
2022-12-15T00:11:03.090Z,75.31
2022-12-15T00:13:30.038Z,75.33
2022-12-15T00:15:56.824Z,75.29
2022-12-15T00:18:23.303Z,75.89
2022-12-15T00:20:49.693Z,76.05
2022-12-15T00:23:16.064Z,75.57
2022-12-15T00:25:42.513Z,75.80
2022-12-15T00:28:08.928Z,75.28
2022-12-15T00:30:35.303Z,75.54
2022-12-15T00:33:01.677Z,75.58
2022-12-15T00:35:28.006Z,75.23
2022-12-15T00:37:54.359Z,75.52
2022-12-15T00:40:23.470Z,75.67
2022-12-15T00:42:49.915Z,75.93
2022-12-15T00:45:16.333Z,75.48
2022-12-15T00:47:42.660Z,75.29
2022-12-15T00:50:09.134Z,75.30
2022-12-15T00:52:35.496Z,76.03
2022-12-15T00:55:01.887Z,75.63
2022-12-15T00:57:28.320Z,75.56
2022-12-15T00:59:54.708Z,75.05
2022-12-15T01:02:21.301Z,75.40
2022-12-15T01:04:47.893Z,75.70
2022-12-15T01:07:14.295Z,74.65
2022-12-15T01:09:40.719Z,73.75
2022-12-15T01:12:10.166Z,72.70
2022-12-15T01:14:36.537Z,72.46
2022-12-15T01:17:03.095Z,73.03
2022-12-15T01:19:29.458Z,72.83
2022-12-15T01:21:58.929Z,72.71
2022-12-15T01:24:32.650Z,73.07
2022-12-15T01:26:59.019Z,74.08
2022-12-15T01:29:25.979Z,73.89
2022-12-15T01:31:53.894Z,73.64
2022-12-15T01:34:20.507Z,73.63
2022-12-15T01:36:46.968Z,73.17
2022-12-15T01:39:13.387Z,73.09
2022-12-15T01:41:39.760Z,73.55
2022-12-15T01:44:06.158Z,73.55
2022-12-15T01:46:32.587Z,73.97
2022-12-15T01:48:59.009Z,74.55
2022-12-15T01:51:25.362Z,74.76
2022-12-15T01:53:51.756Z,74.38
2022-12-15T01:56:18.967Z,74.85
2022-12-15T01:58:45.319Z,74.98
2022-12-15T02:01:11.716Z,74.71
2022-12-15T02:03:40.946Z,74.23
2022-12-15T02:06:07.495Z,74.41
2022-12-15T02:08:33.856Z,75.19
2022-12-15T02:11:00.206Z,75.50
2022-12-15T02:13:26.683Z,74.85
2022-12-15T02:15:53.191Z,74.74
2022-12-15T02:18:19.695Z,74.27
2022-12-15T02:20:46.279Z,74.40
2022-12-15T02:23:12.663Z,73.83
2022-12-15T02:25:39.189Z,74.01
2022-12-15T02:28:05.737Z,73.73
2022-12-15T02:30:32.126Z,73.45
2022-12-15T02:32:58.481Z,73.62
2022-12-15T02:35:24.795Z,73.78
2022-12-15T02:37:51.148Z,73.71
2022-12-15T02:40:17.892Z,73.61
2022-12-15T02:42:44.257Z,73.84
2022-12-15T02:45:10.645Z,73.67
2022-12-15T02:47:36.971Z,74.43
2022-12-15T02:50:03.316Z,74.57
2022-12-15T02:52:29.669Z,74.93
2022-12-15T02:54:56.054Z,75.03
2022-12-15T02:57:22.399Z,74.13
2022-12-15T02:59:48.743Z,73.59
2022-12-15T03:02:15.271Z,73.38
2022-12-15T03:04:42.806Z,73.07
2022-12-15T03:07:09.198Z,73.51
2022-12-15T03:09:37.682Z,74.01
2022-12-15T03:12:05.916Z,73.27
2022-12-15T03:14:32.558Z,73.98
2022-12-15T03:16:58.985Z,73.92
2022-12-15T03:19:25.533Z,73.98
2022-12-15T03:21:51.957Z,73.97
2022-12-15T03:24:18.352Z,74.01
2022-12-15T03:26:44.720Z,73.58
2022-12-15T03:29:11.137Z,73.65
2022-12-15T03:31:37.624Z,73.63
2022-12-15T03:34:03.992Z,73.91
2022-12-15T03:36:30.340Z,74.11
2022-12-15T03:38:56.741Z,74.13
2022-12-15T03:41:23.097Z,74.51
2022-12-15T03:43:49.845Z,74.58
2022-12-15T03:46:18.776Z,74.34
2022-12-15T03:48:45.401Z,74.22
2022-12-15T03:51:11.735Z,74.06
2022-12-15T03:53:38.075Z,74.50
2022-12-15T03:56:05.460Z,75.17
2022-12-15T03:58:32.027Z,75.04
2022-12-15T04:00:58.401Z,74.85
2022-12-15T04:03:24.854Z,74.65
2022-12-15T04:05:51.272Z,74.67
2022-12-15T04:08:18.694Z,74.74
2022-12-15T04:10:45.027Z,75.02
2022-12-15T04:13:11.869Z,74.46
2022-12-15T04:15:41.404Z,74.49
2022-12-15T04:18:07.762Z,74.76
2022-12-15T04:20:34.160Z,74.20
2022-12-15T04:23:00.695Z,74.63
2022-12-15T04:25:27.137Z,74.34
2022-12-15T04:27:58.386Z,74.19
2022-12-15T04:30:27.670Z,74.58
2022-12-15T04:32:54.057Z,75.36
2022-12-15T04:35:20.425Z,75.38
2022-12-15T04:37:46.948Z,75.48
2022-12-15T04:40:13.331Z,75.06
2022-12-15T04:42:39.876Z,74.99
2022-12-15T04:45:06.260Z,75.08
2022-12-15T04:50:14.273Z,74.64
2022-12-15T04:52:41.377Z,74.99
2022-12-15T04:55:07.753Z,75.07
2022-12-15T04:57:34.090Z,74.48
2022-12-15T05:00:00.451Z,75.18
2022-12-15T05:02:26.920Z,74.58
2022-12-15T05:04:53.369Z,74.75
2022-12-15T05:07:19.722Z,75.00
2022-12-15T05:09:46.080Z,75.11
2022-12-15T05:12:12.596Z,75.13
2022-12-15T05:14:38.981Z,75.04
2022-12-15T05:17:05.426Z,74.64
2022-12-15T05:19:31.780Z,74.97
2022-12-15T05:21:58.179Z,74.73
2022-12-15T05:24:24.625Z,74.38
2022-12-15T05:26:53.244Z,74.51
2022-12-15T05:32:00.510Z,74.74
2022-12-15T05:34:26.924Z,74.25
2022-12-15T05:36:53.314Z,74.82
2022-12-15T05:39:19.699Z,74.76
2022-12-15T05:41:46.105Z,75.40
2022-12-15T05:44:12.442Z,75.06
2022-12-15T05:46:38.805Z,74.81
2022-12-15T05:49:05.178Z,74.67
2022-12-15T05:51:31.502Z,75.12
2022-12-15T05:53:58.055Z,74.89
2022-12-15T05:56:24.426Z,74.44
2022-12-15T05:58:50.803Z,74.80
2022-12-15T06:01:17.544Z,75.13
2022-12-15T06:03:44.013Z,74.49
2022-12-15T06:06:14.030Z,74.16
2022-12-15T06:08:41.405Z,74.46
2022-12-15T06:13:49.573Z,74.69
2022-12-15T06:16:16.022Z,75.09
2022-12-15T06:21:22.908Z,74.59
2022-12-15T06:23:57.464Z,74.98
2022-12-15T06:26:23.884Z,74.84
2022-12-15T06:29:05.124Z,75.17
2022-12-15T06:31:31.752Z,74.84
2022-12-15T06:36:40.623Z,74.30
2022-12-15T06:39:07.174Z,74.84
2022-12-15T06:41:33.606Z,74.05
2022-12-15T06:44:00.078Z,73.60
2022-12-15T06:46:26.608Z,73.23
2022-12-15T06:48:53.188Z,73.66
2022-12-15T06:51:19.705Z,73.42
2022-12-15T06:53:46.273Z,73.30
2022-12-15T06:56:12.746Z,73.55
2022-12-15T06:58:39.178Z,73.63
2022-12-15T07:01:05.738Z,73.67
2022-12-15T07:03:32.473Z,73.46
2022-12-15T07:06:11.395Z,73.71
2022-12-15T07:08:41.351Z,72.78
2022-12-15T07:11:08.260Z,73.32
2022-12-15T07:13:34.835Z,73.49
2022-12-15T07:16:06.998Z,74.02
2022-12-15T07:18:33.426Z,73.54
2022-12-15T07:21:02.011Z,73.55
2022-12-15T07:23:52.670Z,74.11
2022-12-15T07:26:21.475Z,73.87
2022-12-15T07:28:47.938Z,73.44
2022-12-15T07:31:14.398Z,73.64
2022-12-15T07:33:47.864Z,73.48
2022-12-15T07:36:14.317Z,73.42
2022-12-15T07:38:42.929Z,73.51
2022-12-15T07:41:09.466Z,72.80
2022-12-15T07:43:36.591Z,73.29
2022-12-15T07:46:11.227Z,73.21
2022-12-15T07:48:37.913Z,72.67
2022-12-15T07:51:10.907Z,73.25
2022-12-15T07:53:41.935Z,72.51
2022-12-15T07:56:11.348Z,72.35
2022-12-15T07:58:37.836Z,72.05
2022-12-15T08:01:04.392Z,71.76
2022-12-15T08:03:31.296Z,71.18
2022-12-15T08:06:03.869Z,70.14
2022-12-15T08:08:30.916Z,70.87
2022-12-15T08:10:57.664Z,71.31
2022-12-15T08:14:00.225Z,71.62
2022-12-15T08:16:12.870Z,72.13
2022-12-15T08:18:40.299Z,72.01
2022-12-15T08:23:54.784Z,70.98
2022-12-15T08:26:29.785Z,70.96
2022-12-15T08:28:57.128Z,70.86
2022-12-15T08:31:27.109Z,71.27
2022-12-15T08:33:53.612Z,71.00
2022-12-15T08:36:28.456Z,71.14
2022-12-15T08:38:55.017Z,71.77
2022-12-15T08:41:23.847Z,71.55
2022-12-15T08:43:50.464Z,71.62
2022-12-15T08:49:02.160Z,72.15
2022-12-15T08:51:28.526Z,72.70
2022-12-15T08:53:54.934Z,72.98
2022-12-15T08:56:22.278Z,72.77
2022-12-15T08:58:57.680Z,73.13
2022-12-15T09:01:24.438Z,72.92
2022-12-15T09:03:51.165Z,73.38
2022-12-15T09:06:17.679Z,72.85
2022-12-15T09:08:44.172Z,72.94
2022-12-15T09:11:15.066Z,73.07
2022-12-15T09:13:41.494Z,73.29
2022-12-15T09:16:10.013Z,72.83
2022-12-15T09:18:37.094Z,73.14
2022-12-15T09:21:03.618Z,72.27
2022-12-15T09:23:35.474Z,72.63
2022-12-15T09:28:42.709Z,69.60
2022-12-15T09:31:16.803Z,69.69
2022-12-15T09:33:47.330Z,70.14
2022-12-15T09:36:22.560Z,70.35
2022-12-15T09:38:48.972Z,70.66
2022-12-15T09:41:16.604Z,69.82
2022-12-15T09:43:47.127Z,70.32
2022-12-15T09:46:14.075Z,70.81
2022-12-15T09:48:40.592Z,69.80
2022-12-15T09:51:07.018Z,69.21
2022-12-15T09:53:57.424Z,69.59
2022-12-15T09:56:19.878Z,69.27
2022-12-15T09:58:48.832Z,70.01
2022-12-15T10:01:17.172Z,70.11
2022-12-15T10:03:43.737Z,69.82
2022-12-15T10:06:20.045Z,70.74
2022-12-15T10:08:50.843Z,71.21
2022-12-15T10:11:18.433Z,70.83
2022-12-15T10:13:44.931Z,70.94
2022-12-15T10:16:11.751Z,71.21
2022-12-15T10:18:38.273Z,71.09
2022-12-15T10:21:04.684Z,71.17
2022-12-15T10:23:31.452Z,71.31
2022-12-15T10:25:58.365Z,71.43
2022-12-15T10:28:24.808Z,71.54
2022-12-15T10:30:51.410Z,72.05
2022-12-15T10:33:18.042Z,72.35
2022-12-15T10:35:44.598Z,71.59
2022-12-15T10:38:23.341Z,71.37
2022-12-15T10:40:52.845Z,71.11
2022-12-15T10:43:19.367Z,69.28
2022-12-15T10:45:45.917Z,70.05
2022-12-15T10:48:12.312Z,69.40
2022-12-15T10:50:38.775Z,69.19
2022-12-15T10:53:05.283Z,69.71
2022-12-15T10:55:31.852Z,69.90
2022-12-15T10:57:58.210Z,71.12
2022-12-15T11:00:24.660Z,70.55
2022-12-15T11:02:51.509Z,70.70
2022-12-15T11:05:20.828Z,70.55
2022-12-15T11:07:47.570Z,69.95
2022-12-15T11:10:15.107Z,69.60
2022-12-15T11:12:41.635Z,68.79
2022-12-15T11:15:08.175Z,68.74
2022-12-15T11:17:34.665Z,69.35
2022-12-15T11:20:03.099Z,69.00
2022-12-15T11:22:29.962Z,68.81
2022-12-15T11:24:57.741Z,67.93
2022-12-15T11:27:24.466Z,68.03
2022-12-15T11:29:50.906Z,68.52
2022-12-15T11:32:17.389Z,68.48
2022-12-15T11:35:02.008Z,68.09
2022-12-15T11:37:34.237Z,68.51
2022-12-15T11:40:09.259Z,68.98
2022-12-15T11:42:38.698Z,68.85
2022-12-15T11:45:11.317Z,68.93
2022-12-15T11:47:39.908Z,68.44
2022-12-15T11:50:06.463Z,69.16
2022-12-15T11:52:32.969Z,68.92
2022-12-15T11:57:39.779Z,68.37
2022-12-15T12:00:06.221Z,68.08
2022-12-15T12:02:32.881Z,68.54
2022-12-15T12:04:59.555Z,68.60
2022-12-15T12:07:26.181Z,68.75
2022-12-15T12:09:52.720Z,68.31
2022-12-15T12:12:19.289Z,68.11
2022-12-15T12:14:45.827Z,68.44
2022-12-15T12:17:17.190Z,67.93
2022-12-15T12:19:43.575Z,67.99
2022-12-15T12:22:10.008Z,67.65
2022-12-15T12:24:48.918Z,67.67
2022-12-15T12:27:24.438Z,68.17
2022-12-15T12:29:50.918Z,68.66
2022-12-15T12:32:17.386Z,68.23
2022-12-15T12:34:43.988Z,67.50
2022-12-15T12:37:10.493Z,67.92
2022-12-15T12:39:36.952Z,67.73
2022-12-15T12:42:04.308Z,67.47
2022-12-15T12:44:30.951Z,68.14
2022-12-15T12:46:57.732Z,67.68
2022-12-15T12:49:26.703Z,67.67
2022-12-15T12:51:53.558Z,67.97
2022-12-15T12:54:22.228Z,67.85
2022-12-15T12:56:50.640Z,67.67
2022-12-15T12:59:17.172Z,66.54
2022-12-15T13:01:43.775Z,67.23
2022-12-15T13:04:10.264Z,67.41
2022-12-15T13:06:36.708Z,67.58
2022-12-15T13:09:04.411Z,67.77
2022-12-15T13:11:30.980Z,67.68
2022-12-15T13:13:57.396Z,67.33
2022-12-15T13:16:25.236Z,67.83
2022-12-15T13:21:38.907Z,68.35
2022-12-15T13:24:05.365Z,68.36
2022-12-15T13:26:31.913Z,67.96
2022-12-15T13:28:58.409Z,67.94
2022-12-15T13:31:25.171Z,67.55
2022-12-15T13:33:51.846Z,68.21
2022-12-15T13:36:18.331Z,68.35
2022-12-15T13:38:46.146Z,69.22
2022-12-15T13:41:17.158Z,68.85
2022-12-15T13:43:43.615Z,69.24
2022-12-15T13:46:10.194Z,68.86
2022-12-15T13:48:36.784Z,69.10
2022-12-15T13:51:03.475Z,69.48
2022-12-15T13:53:29.912Z,69.34
2022-12-15T13:55:56.434Z,69.74
2022-12-15T13:58:22.984Z,69.59
2022-12-15T14:00:53.725Z,69.01
2022-12-15T14:03:20.300Z,68.84
2022-12-15T14:05:46.750Z,68.68
2022-12-15T14:08:13.289Z,69.02
2022-12-15T14:10:39.826Z,69.19
2022-12-15T14:13:15.465Z,69.66
2022-12-15T14:15:42.767Z,69.92
2022-12-15T14:18:09.203Z,70.26
2022-12-15T14:20:35.591Z,70.43
2022-12-15T14:23:02.022Z,69.92
2022-12-15T14:25:28.433Z,68.81
2022-12-15T14:27:54.869Z,68.85
2022-12-15T14:30:21.309Z,68.93
2022-12-15T14:32:47.836Z,69.30
2022-12-15T14:35:17.019Z,69.50
2022-12-15T14:37:43.467Z,69.45
2022-12-15T14:40:09.931Z,69.78
2022-12-15T14:42:36.366Z,70.17
2022-12-15T14:45:02.776Z,69.84
2022-12-15T14:47:29.324Z,69.61
2022-12-15T14:49:55.744Z,69.94
2022-12-15T14:52:23.367Z,69.70
2022-12-15T14:54:49.851Z,69.74
2022-12-15T14:57:16.238Z,69.63
2022-12-15T14:59:42.671Z,69.74
2022-12-15T15:02:09.405Z,69.80
2022-12-15T15:04:35.900Z,69.95
2022-12-15T15:07:02.289Z,70.14
2022-12-15T15:09:28.710Z,70.26
2022-12-15T15:11:55.093Z,70.12
2022-12-15T15:14:21.531Z,70.54
2022-12-15T15:16:48.097Z,71.07
2022-12-15T15:19:15.820Z,70.91
2022-12-15T15:21:42.248Z,70.72
2022-12-15T15:24:08.695Z,70.58
2022-12-15T15:26:35.231Z,70.87
2022-12-15T15:29:08.496Z,71.24
2022-12-15T15:31:41.055Z,71.30
2022-12-15T15:34:08.372Z,71.59
2022-12-15T15:36:35.101Z,72.25
2022-12-15T15:39:02.662Z,72.10
2022-12-15T15:41:29.073Z,72.34
2022-12-15T15:43:55.570Z,72.23
2022-12-15T15:46:27.376Z,72.40
2022-12-15T15:48:54.489Z,72.73
2022-12-15T15:51:22.246Z,72.76
2022-12-15T15:53:48.718Z,73.14
2022-12-15T15:56:16.548Z,73.05
2022-12-15T15:58:43.690Z,73.79
2022-12-15T16:01:14.519Z,73.83
2022-12-15T16:03:41.138Z,73.49
2022-12-15T16:06:09.605Z,73.23
2022-12-15T16:08:41.894Z,73.01
2022-12-15T16:11:10.916Z,72.73
2022-12-15T16:13:37.362Z,72.88
2022-12-15T16:16:04.034Z,72.39
2022-12-15T16:18:31.837Z,72.56
2022-12-15T16:21:00.411Z,72.65
2022-12-15T16:23:26.831Z,72.85
2022-12-15T16:25:54.015Z,73.44
2022-12-15T16:28:20.598Z,73.93
2022-12-15T16:30:47.164Z,73.37
2022-12-15T16:33:15.396Z,73.76
2022-12-15T16:35:42.074Z,73.29
2022-12-15T16:38:08.549Z,73.11
2022-12-15T16:40:34.983Z,73.57
2022-12-15T16:43:04.889Z,73.28
2022-12-15T16:45:33.020Z,73.22
2022-12-15T16:47:59.525Z,73.53
2022-12-15T16:50:28.313Z,73.63
2022-12-15T16:52:54.693Z,73.64
2022-12-15T16:55:21.168Z,73.69
2022-12-15T16:57:55.169Z,73.27
2022-12-15T17:00:21.625Z,73.14
2022-12-15T17:02:48.186Z,72.86
2022-12-15T17:05:16.812Z,72.78
2022-12-15T17:07:43.262Z,73.21
2022-12-15T17:10:12.661Z,73.51
2022-12-15T17:12:46.596Z,73.72
2022-12-15T17:15:12.909Z,74.04
2022-12-15T17:17:39.466Z,74.24
2022-12-15T17:22:52.370Z,71.54
2022-12-15T17:25:27.388Z,70.78
2022-12-15T17:28:04.172Z,70.26
2022-12-15T17:30:30.513Z,70.83
2022-12-15T17:32:56.924Z,71.01
2022-12-15T17:35:23.421Z,71.20
2022-12-15T17:37:49.852Z,71.77
2022-12-15T17:40:16.410Z,72.05
2022-12-15T17:42:43.842Z,72.69
2022-12-15T17:45:10.284Z,72.74
2022-12-15T17:47:36.717Z,73.25
2022-12-15T17:50:07.175Z,73.39
2022-12-15T17:52:33.576Z,73.81
2022-12-15T17:55:00.006Z,73.71
2022-12-15T17:57:26.384Z,73.84
2022-12-15T17:59:53.225Z,73.56
2022-12-15T18:02:19.704Z,73.96
2022-12-15T18:04:46.264Z,73.79
2022-12-15T18:07:12.650Z,73.71
2022-12-15T18:09:40.395Z,73.67
2022-12-15T18:12:06.921Z,73.95
2022-12-15T18:14:33.331Z,73.79
2022-12-15T18:17:09.319Z,73.66
2022-12-15T18:22:18.927Z,73.45
2022-12-15T18:24:45.279Z,73.21
2022-12-15T18:27:17.721Z,73.14
2022-12-15T18:29:44.139Z,73.37
2022-12-15T18:32:10.551Z,73.13
2022-12-15T18:34:36.943Z,73.07
2022-12-15T18:37:03.394Z,73.26
2022-12-15T18:39:29.849Z,73.40
2022-12-15T18:41:56.313Z,73.23
2022-12-15T18:44:22.754Z,73.13
2022-12-15T18:46:55.107Z,72.91
2022-12-15T18:49:21.917Z,73.54
2022-12-15T18:51:48.258Z,72.73
2022-12-15T18:54:29.385Z,73.26
2022-12-15T18:56:58.337Z,73.54
2022-12-15T18:59:24.813Z,73.24
2022-12-15T19:01:56.230Z,73.11
2022-12-15T19:04:22.693Z,73.79
2022-12-15T19:06:49.087Z,73.92
2022-12-15T19:09:15.450Z,74.38
2022-12-15T19:11:41.815Z,73.97
2022-12-15T19:14:08.176Z,74.32
2022-12-15T19:16:35.087Z,73.84
2022-12-15T19:19:01.549Z,73.99
2022-12-15T19:21:28.020Z,73.05
2022-12-15T19:23:54.518Z,73.26
2022-12-15T19:26:20.892Z,73.49
2022-12-15T19:28:54.551Z,73.05
2022-12-15T19:31:21.082Z,73.58
2022-12-15T19:33:47.535Z,73.21
2022-12-15T19:36:13.938Z,72.89
2022-12-15T19:38:40.355Z,73.40
2022-12-15T19:41:06.751Z,73.07
2022-12-15T19:43:36.768Z,73.11
2022-12-15T19:46:03.559Z,73.49
2022-12-15T19:48:30.087Z,73.13
2022-12-15T19:50:56.472Z,73.16
2022-12-15T19:53:22.844Z,73.49
2022-12-15T19:55:49.281Z,73.45
2022-12-15T19:58:15.629Z,73.67
2022-12-15T20:00:42.102Z,73.74
2022-12-15T20:03:08.566Z,73.54
2022-12-15T20:05:35.099Z,73.06
2022-12-15T20:08:12.439Z,73.65
2022-12-15T20:10:38.849Z,72.93
2022-12-15T20:13:05.335Z,73.03
2022-12-15T20:15:31.689Z,72.91
2022-12-15T20:17:58.183Z,73.02
2022-12-15T20:20:28.041Z,73.06
2022-12-15T20:22:54.504Z,73.66
2022-12-15T20:25:20.855Z,73.65
2022-12-15T20:27:47.234Z,73.64
2022-12-15T20:30:16.478Z,73.01
2022-12-15T20:32:44.176Z,73.18
2022-12-15T20:35:10.713Z,73.78
2022-12-15T20:37:38.042Z,73.25
2022-12-15T20:40:04.425Z,73.15
2022-12-15T20:42:30.781Z,73.58
2022-12-15T20:44:57.168Z,72.65
2022-12-15T20:47:23.650Z,73.23
2022-12-15T20:49:52.925Z,72.79
2022-12-15T20:52:19.354Z,72.98
2022-12-15T20:57:36.166Z,73.05
2022-12-15T21:00:02.564Z,72.52
2022-12-15T21:05:20.009Z,72.42
2022-12-15T21:07:46.338Z,72.40
2022-12-15T21:10:12.759Z,73.05
2022-12-15T21:12:39.410Z,72.46
2022-12-15T21:15:08.227Z,72.92
2022-12-15T21:17:38.692Z,72.88
2022-12-15T21:20:10.470Z,73.04
2022-12-15T21:22:37.091Z,72.81
2022-12-15T21:25:06.187Z,72.99
2022-12-15T21:27:32.654Z,73.43
2022-12-15T21:29:59.032Z,73.11
2022-12-15T21:32:25.534Z,73.23
2022-12-15T21:34:55.778Z,72.86
2022-12-15T21:37:24.714Z,73.25
2022-12-15T21:39:51.866Z,73.10
2022-12-15T21:42:19.141Z,72.72
2022-12-15T21:44:45.553Z,72.64
2022-12-15T21:47:11.935Z,73.09
2022-12-15T21:49:39.820Z,73.00
2022-12-15T21:52:18.474Z,73.08
2022-12-15T21:54:48.666Z,73.20
2022-12-15T21:57:15.176Z,72.93
2022-12-15T21:59:41.568Z,72.70
2022-12-15T22:02:09.558Z,72.20
2022-12-15T22:04:36.078Z,72.95
2022-12-15T22:07:08.363Z,73.11
2022-12-15T22:09:34.885Z,72.70
2022-12-15T22:12:04.185Z,72.19
2022-12-15T22:17:12.020Z,72.88
2022-12-15T22:19:38.489Z,73.05
2022-12-15T22:22:07.062Z,72.83
2022-12-15T22:24:34.450Z,73.17
2022-12-15T22:27:01.060Z,72.69
2022-12-15T22:29:27.455Z,72.43
2022-12-15T22:31:55.024Z,72.02
2022-12-15T22:34:21.594Z,72.67
2022-12-15T22:36:48.093Z,72.68
2022-12-15T22:39:14.687Z,72.47
2022-12-15T22:41:41.156Z,72.71
2022-12-15T22:44:07.627Z,73.23
2022-12-15T22:46:34.571Z,73.73
2022-12-15T22:49:01.045Z,73.98
2022-12-15T22:51:27.691Z,73.77
2022-12-15T22:53:54.136Z,73.54
2022-12-15T22:56:21.299Z,74.05
2022-12-15T22:58:47.710Z,73.64
2022-12-15T23:01:19.346Z,73.62
2022-12-15T23:03:46.773Z,73.48
2022-12-15T23:06:15.668Z,73.52
2022-12-15T23:08:42.452Z,73.26
2022-12-15T23:11:09.226Z,73.98
2022-12-15T23:13:35.704Z,73.04
2022-12-15T23:16:05.423Z,72.99
2022-12-15T23:18:32.559Z,72.87
2022-12-15T23:20:58.931Z,72.99
2022-12-15T23:23:25.315Z,72.81
2022-12-15T23:25:51.791Z,72.43
2022-12-15T23:28:18.217Z,72.66
2022-12-15T23:30:44.642Z,72.47
2022-12-15T23:33:11.030Z,73.22
2022-12-15T23:35:37.422Z,73.65
2022-12-15T23:38:03.953Z,74.14
2022-12-15T23:40:30.454Z,74.03
2022-12-15T23:42:56.906Z,74.13
2022-12-15T23:45:23.354Z,71.91
2022-12-15T23:47:49.834Z,72.57
2022-12-15T23:50:16.287Z,73.20
2022-12-15T23:52:42.774Z,73.65
2022-12-15T23:55:09.155Z,73.92
2022-12-15T23:57:35.539Z,73.56
